createdAt,value
2018-07-17T00:00:11.543Z,7.20
2018-07-17T00:02:39.765Z,6.63
2018-07-17T00:05:08.557Z,7.23
2018-07-17T00:07:36.870Z,6.60
2018-07-17T00:10:05.177Z,6.30
2018-07-17T00:12:33.319Z,6.53
2018-07-17T00:15:01.495Z,6.67
2018-07-17T00:17:29.618Z,6.87
2018-07-17T00:19:57.789Z,7.13
2018-07-17T00:22:25.905Z,6.93
2018-07-17T00:24:54.019Z,7.33
2018-07-17T00:27:22.178Z,6.93
2018-07-17T00:29:50.300Z,7.30
2018-07-17T00:32:18.433Z,7.00
2018-07-17T00:34:46.549Z,7.80
2018-07-17T00:37:14.658Z,7.33
2018-07-17T00:39:42.777Z,7.83
2018-07-17T00:42:10.883Z,6.80
2018-07-17T00:44:38.982Z,7.53
2018-07-17T00:47:07.097Z,7.10
2018-07-17T00:49:35.204Z,7.40
2018-07-17T00:52:03.374Z,7.37
2018-07-17T00:54:31.469Z,7.17
2018-07-17T00:56:59.589Z,7.47
2018-07-17T00:59:27.713Z,8.43
2018-07-17T01:02:01.142Z,6.90
2018-07-17T01:04:34.457Z,7.20
2018-07-17T01:07:07.878Z,7.17
2018-07-17T01:09:41.470Z,7.30
2018-07-17T01:12:12.811Z,7.73
2018-07-17T01:14:52.810Z,7.33
2018-07-17T01:17:21.304Z,7.70
2018-07-17T01:19:49.413Z,7.67
2018-07-17T01:22:17.528Z,7.50
2018-07-17T01:24:45.638Z,7.90
2018-07-17T01:27:13.825Z,7.13
2018-07-17T01:29:41.955Z,7.63
2018-07-17T01:32:10.051Z,7.90
2018-07-17T01:34:38.184Z,8.30
2018-07-17T01:37:06.279Z,9.20
2018-07-17T01:39:34.417Z,8.67
2018-07-17T01:42:02.506Z,7.60
2018-07-17T01:44:30.609Z,8.30
2018-07-17T01:46:58.722Z,8.73
2018-07-17T01:49:26.866Z,8.37
2018-07-17T01:51:54.975Z,7.67
2018-07-17T01:54:23.081Z,8.00
2018-07-17T01:56:51.192Z,8.97
2018-07-17T01:59:19.318Z,7.90
2018-07-17T02:01:47.418Z,7.90
2018-07-17T02:04:15.519Z,7.30
2018-07-17T02:06:43.594Z,7.90
2018-07-17T02:09:12.505Z,7.90
2018-07-17T02:11:40.592Z,8.30
2018-07-17T02:14:08.771Z,8.53
2018-07-17T02:16:36.869Z,7.03
2018-07-17T02:19:05.058Z,7.27
2018-07-17T02:21:33.148Z,7.50
2018-07-17T02:24:01.261Z,6.73
2018-07-17T02:26:29.381Z,7.73
2018-07-17T02:28:57.481Z,7.80
2018-07-17T02:31:25.727Z,8.17
2018-07-17T02:33:53.806Z,7.43
2018-07-17T02:36:21.893Z,7.63
2018-07-17T02:38:49.988Z,7.60
2018-07-17T02:41:18.063Z,7.00
2018-07-17T02:43:46.154Z,7.23
2018-07-17T02:46:14.258Z,6.97
2018-07-17T02:48:42.351Z,6.60
2018-07-17T02:51:10.578Z,7.70
2018-07-17T02:53:38.674Z,7.20
2018-07-17T02:56:06.782Z,7.83
2018-07-17T02:58:34.922Z,7.30
2018-07-17T03:01:03.059Z,7.43
2018-07-17T03:03:31.158Z,7.07
2018-07-17T03:05:59.264Z,6.67
2018-07-17T03:08:27.356Z,7.20
2018-07-17T03:10:55.450Z,7.67
2018-07-17T03:13:23.542Z,8.20
2018-07-17T03:15:51.634Z,7.27
2018-07-17T03:18:19.722Z,7.90
2018-07-17T03:20:47.814Z,7.67
2018-07-17T03:23:15.906Z,7.83
2018-07-17T03:25:43.990Z,7.20
2018-07-17T03:28:12.103Z,8.10
2018-07-17T03:30:40.241Z,7.17
2018-07-17T03:33:08.336Z,7.80
2018-07-17T03:35:36.485Z,7.83
2018-07-17T03:38:04.643Z,9.00
2018-07-17T03:40:32.740Z,8.40
2018-07-17T03:43:00.837Z,9.53
2018-07-17T03:45:28.933Z,8.90
2018-07-17T03:47:57.026Z,8.03
2018-07-17T03:50:25.109Z,9.20
2018-07-17T03:52:53.193Z,9.37
2018-07-17T03:55:21.298Z,9.33
2018-07-17T03:57:49.401Z,9.03
2018-07-17T04:00:17.499Z,9.60
2018-07-17T04:02:45.635Z,8.80
2018-07-17T04:05:13.747Z,9.50
2018-07-17T04:07:41.892Z,9.00
2018-07-17T04:10:09.989Z,8.70
2018-07-17T04:12:38.152Z,8.70
2018-07-17T04:15:06.260Z,8.60
2018-07-17T04:17:34.395Z,8.80
2018-07-17T04:20:02.486Z,8.33
2018-07-17T04:22:30.601Z,8.77
2018-07-17T04:24:58.714Z,9.20
2018-07-17T04:27:26.906Z,7.93
2018-07-17T04:29:55.270Z,9.40
2018-07-17T04:32:23.258Z,8.10
2018-07-17T04:34:51.384Z,8.50
2018-07-17T04:37:19.487Z,8.70
2018-07-17T04:39:47.590Z,8.70
2018-07-17T04:42:15.691Z,8.43
2018-07-17T04:44:43.805Z,8.90
2018-07-17T04:47:11.901Z,9.20
2018-07-17T04:49:40.170Z,9.03
2018-07-17T04:52:08.273Z,8.60
2018-07-17T04:54:36.389Z,9.67
2018-07-17T04:57:04.562Z,8.50
2018-07-17T04:59:32.666Z,8.70
2018-07-17T05:02:00.798Z,11.20
2018-07-17T05:04:28.849Z,10.00
2018-07-17T05:06:57.057Z,8.40
2018-07-17T05:09:25.131Z,9.20
2018-07-17T05:11:53.302Z,9.43
2018-07-17T05:14:21.407Z,9.20
2018-07-17T05:16:49.476Z,9.20
2018-07-17T05:19:17.561Z,8.80
2018-07-17T05:21:45.750Z,9.30
2018-07-17T05:24:13.853Z,10.43
2018-07-17T05:26:41.987Z,10.30
2018-07-17T05:29:10.102Z,10.77
2018-07-17T05:31:38.210Z,8.87
2018-07-17T05:34:06.355Z,9.03
2018-07-17T05:36:34.487Z,9.20
2018-07-17T05:39:02.629Z,9.00
2018-07-17T05:41:30.698Z,8.60
2018-07-17T05:43:58.798Z,8.53
2018-07-17T05:46:26.918Z,9.50
2018-07-17T05:48:54.991Z,9.30
2018-07-17T05:51:23.091Z,9.60
2018-07-17T05:53:51.177Z,9.27
2018-07-17T05:56:19.260Z,8.93
2018-07-17T05:58:47.353Z,8.63
2018-07-17T06:01:15.459Z,9.30
2018-07-17T06:03:43.553Z,8.80
2018-07-17T06:06:11.650Z,8.00
2018-07-17T06:08:39.757Z,9.37
2018-07-17T06:11:07.845Z,8.90
2018-07-17T06:13:36.958Z,9.47
2018-07-17T06:16:05.046Z,9.23
2018-07-17T06:18:33.153Z,9.37
2018-07-17T06:21:01.289Z,8.80
2018-07-17T06:23:29.405Z,9.07
2018-07-17T06:25:57.502Z,8.60
2018-07-17T06:28:25.616Z,8.57
2018-07-17T06:30:53.732Z,8.70
2018-07-17T06:33:21.833Z,8.93
2018-07-17T06:35:49.957Z,8.40
2018-07-17T06:38:18.061Z,8.30
2018-07-17T06:40:46.162Z,8.13
2018-07-17T06:43:14.267Z,7.93
2018-07-17T06:45:42.398Z,6.87
2018-07-17T06:48:10.506Z,7.30
2018-07-17T06:50:38.786Z,7.57
2018-07-17T06:53:07.384Z,8.27
2018-07-17T06:55:35.526Z,7.63
2018-07-17T06:58:04.024Z,7.37
2018-07-17T07:00:32.119Z,7.20
2018-07-17T07:03:00.208Z,6.90
2018-07-17T07:05:28.314Z,7.53
2018-07-17T07:07:56.422Z,7.00
2018-07-17T07:10:24.522Z,7.13
2018-07-17T07:12:52.627Z,7.27
2018-07-17T07:15:20.716Z,6.60
2018-07-17T07:17:48.817Z,7.20
2018-07-17T07:20:16.937Z,7.47
2018-07-17T07:22:45.107Z,7.90
2018-07-17T07:25:13.229Z,8.23
2018-07-17T07:27:41.394Z,7.17
2018-07-17T07:30:09.542Z,10.90
2018-07-17T07:32:38.250Z,7.20
2018-07-17T07:35:06.610Z,7.50
2018-07-17T07:37:40.523Z,6.53
2018-07-17T07:40:08.657Z,7.20
2018-07-17T07:42:36.825Z,7.50
2018-07-17T07:45:05.017Z,6.50
2018-07-17T07:47:33.189Z,6.77
2018-07-17T07:50:01.335Z,6.70
2018-07-17T07:52:29.488Z,6.80
2018-07-17T07:54:57.715Z,6.63
2018-07-17T07:57:25.889Z,6.50
2018-07-17T07:59:54.207Z,7.10
2018-07-17T08:02:22.635Z,7.60
2018-07-17T08:04:50.854Z,6.60
2018-07-17T08:07:19.471Z,6.37
2018-07-17T08:09:47.735Z,6.40
2018-07-17T08:12:15.992Z,7.37
2018-07-17T08:14:44.151Z,6.80
2018-07-17T08:17:12.265Z,5.53
2018-07-17T08:19:40.396Z,6.47
2018-07-17T08:22:08.534Z,6.60
2018-07-17T08:24:36.768Z,6.20
2018-07-17T08:27:04.913Z,6.63
2018-07-17T08:29:33.119Z,7.00
2018-07-17T08:32:01.263Z,6.70
2018-07-17T08:34:29.389Z,6.50
2018-07-17T08:36:57.574Z,6.13
2018-07-17T08:39:25.801Z,5.67
2018-07-17T08:41:54.083Z,5.53
2018-07-17T08:44:22.277Z,6.23
2018-07-17T08:46:50.660Z,6.07
2018-07-17T08:49:19.643Z,5.97
2018-07-17T08:51:48.021Z,5.63
2018-07-17T08:54:16.183Z,5.80
2018-07-17T08:56:44.330Z,5.70
2018-07-17T08:59:12.421Z,5.40
2018-07-17T09:01:40.658Z,5.80
2018-07-17T09:04:08.820Z,6.30
2018-07-17T09:06:36.986Z,5.47
2018-07-17T09:09:05.955Z,5.30
2018-07-17T09:11:34.100Z,5.93
2018-07-17T09:14:02.200Z,5.73
2018-07-17T09:16:30.370Z,5.60
2018-07-17T09:18:58.516Z,6.30
2018-07-17T09:21:26.807Z,6.13
2018-07-17T09:23:55.032Z,5.40
2018-07-17T09:26:23.422Z,5.30
2018-07-17T09:28:51.721Z,5.20
2018-07-17T09:31:20.684Z,5.20
2018-07-17T09:33:49.033Z,6.00
2018-07-17T09:36:17.346Z,5.90
2018-07-17T09:38:45.494Z,5.10
2018-07-17T09:41:13.633Z,4.90
2018-07-17T09:43:41.807Z,5.40
2018-07-17T09:46:09.951Z,5.17
2018-07-17T09:48:38.070Z,5.43
2018-07-17T09:51:06.913Z,4.50
2018-07-17T09:53:35.396Z,5.07
2018-07-17T09:56:03.503Z,4.50
2018-07-17T09:58:31.673Z,4.40
2018-07-17T10:01:05.211Z,3.97
2018-07-17T10:03:33.347Z,4.00
2018-07-17T10:06:01.476Z,3.83
2018-07-17T10:08:29.591Z,4.30
2018-07-17T10:10:57.785Z,4.13
2018-07-17T10:13:26.094Z,3.73
2018-07-17T10:15:54.342Z,4.20
2018-07-17T10:18:22.711Z,4.10
2018-07-17T10:20:52.435Z,3.87
2018-07-17T10:23:20.774Z,4.23
2018-07-17T10:25:49.403Z,3.90
2018-07-17T10:28:17.675Z,4.50
2018-07-17T10:30:45.805Z,3.90
2018-07-17T10:33:13.942Z,4.60
2018-07-17T10:35:42.116Z,4.37
2018-07-17T10:38:10.246Z,4.30
2018-07-17T10:40:38.379Z,4.23
2018-07-17T10:43:06.959Z,4.37
2018-07-17T10:45:35.094Z,4.03
2018-07-17T10:48:03.235Z,4.47
2018-07-17T10:50:31.370Z,4.47
2018-07-17T10:52:59.544Z,4.00
2018-07-17T10:55:27.766Z,3.80
2018-07-17T10:57:56.222Z,3.90
2018-07-17T11:00:25.148Z,3.77
2018-07-17T11:02:53.735Z,4.10
2018-07-17T11:05:22.325Z,3.63
2018-07-17T11:07:50.996Z,4.80
2018-07-17T11:10:20.176Z,4.00
2018-07-17T11:12:48.698Z,4.00
2018-07-17T11:15:16.858Z,3.50
2018-07-17T11:17:45.102Z,4.03
2018-07-17T11:20:13.291Z,4.23
2018-07-17T11:22:42.806Z,4.00
2018-07-17T11:25:10.951Z,3.80
2018-07-17T11:27:39.118Z,3.77
2018-07-17T11:30:07.688Z,3.93
2018-07-17T11:32:35.894Z,3.40
2018-07-17T11:35:04.339Z,3.13
2018-07-17T11:37:32.473Z,3.33
2018-07-17T11:40:00.624Z,3.70
2018-07-17T11:42:29.103Z,2.90
2018-07-17T11:44:57.377Z,2.90
2018-07-17T11:47:25.748Z,3.20
2018-07-17T11:49:54.867Z,3.50
2018-07-17T11:52:23.545Z,3.10
2018-07-17T11:54:52.362Z,3.30
2018-07-17T11:57:20.911Z,2.93
2018-07-17T11:59:49.691Z,3.13
2018-07-17T12:02:18.110Z,3.10
2018-07-17T12:04:46.346Z,2.70
2018-07-17T12:07:14.481Z,3.17
2018-07-17T12:09:42.681Z,3.90
2018-07-17T12:12:10.855Z,3.30
2018-07-17T12:14:39.013Z,2.93
2018-07-17T12:17:07.129Z,3.30
2018-07-17T12:19:35.282Z,3.30
2018-07-17T12:22:04.085Z,3.20
2018-07-17T12:24:32.301Z,3.50
2018-07-17T12:27:00.504Z,3.53
2018-07-17T12:29:28.628Z,3.20
2018-07-17T12:31:57.007Z,3.13
2018-07-17T12:34:25.566Z,3.47
2018-07-17T12:36:57.094Z,3.63
2018-07-17T12:39:25.406Z,3.80
2018-07-17T12:41:53.569Z,3.77
2018-07-17T12:44:21.880Z,3.20
2018-07-17T12:46:49.997Z,3.70
2018-07-17T12:49:18.578Z,3.67
2018-07-17T12:51:46.697Z,3.70
2018-07-17T12:54:14.899Z,3.43
2018-07-17T12:56:43.030Z,3.43
2018-07-17T12:59:11.210Z,3.23
2018-07-17T13:01:39.366Z,3.73
2018-07-17T13:04:07.520Z,3.90
2018-07-17T13:06:35.900Z,3.37
2018-07-17T13:09:07.159Z,3.40
2018-07-17T13:11:35.553Z,3.70
2018-07-17T13:14:03.731Z,3.93
2018-07-17T13:16:32.614Z,4.07
2018-07-17T13:19:00.790Z,3.10
2018-07-17T13:21:29.189Z,3.63
2018-07-17T13:23:58.653Z,3.00
2018-07-17T13:26:27.518Z,3.03
2018-07-17T13:28:56.228Z,2.87
2018-07-17T13:31:24.382Z,3.03
2018-07-17T13:33:52.587Z,3.27
2018-07-17T13:36:20.733Z,3.43
2018-07-17T13:38:48.869Z,3.83
2018-07-17T13:41:17.013Z,3.97
2018-07-17T13:43:45.203Z,3.97
2018-07-17T13:46:13.274Z,3.43
2018-07-17T13:48:41.414Z,3.67
2018-07-17T13:51:09.529Z,3.50
2018-07-17T13:53:37.681Z,3.90
2018-07-17T13:56:05.829Z,3.53
2018-07-17T13:58:33.959Z,3.53
2018-07-17T14:01:02.112Z,3.57
2018-07-17T14:03:31.192Z,4.67
2018-07-17T14:05:59.322Z,4.10
2018-07-17T14:08:27.447Z,4.00
2018-07-17T14:10:55.570Z,4.73
2018-07-17T14:13:23.721Z,3.67
2018-07-17T14:15:51.877Z,4.00
2018-07-17T14:18:20.023Z,4.10
2018-07-17T14:20:48.141Z,4.37
2018-07-17T14:23:16.287Z,5.07
2018-07-17T14:25:44.478Z,4.53
2018-07-17T14:28:13.253Z,4.50
2018-07-17T14:30:41.441Z,4.70
2018-07-17T14:33:09.561Z,5.10
2018-07-17T14:35:37.676Z,4.10
2018-07-17T14:38:05.829Z,3.67
2018-07-17T14:40:34.034Z,5.20
2018-07-17T14:43:02.177Z,4.00
2018-07-17T14:45:30.347Z,3.67
2018-07-17T14:47:58.489Z,4.27
2018-07-17T14:50:27.645Z,4.93
2018-07-17T14:52:55.800Z,6.13
2018-07-17T14:55:24.303Z,5.00
2018-07-17T14:57:53.641Z,5.50
2018-07-17T15:00:23.024Z,5.83
2018-07-17T15:02:53.690Z,5.90
2018-07-17T15:05:23.306Z,6.50
2018-07-17T15:07:51.512Z,6.50
2018-07-17T15:10:19.684Z,7.17
2018-07-17T15:12:47.831Z,6.60
2018-07-17T15:15:16.125Z,5.47
2018-07-17T15:17:44.296Z,6.50
2018-07-17T15:20:12.425Z,5.70
2018-07-17T15:22:40.648Z,6.60
2018-07-17T15:25:08.802Z,6.67
2018-07-17T15:27:36.996Z,6.70
2018-07-17T15:30:05.298Z,6.73
2018-07-17T15:32:33.495Z,6.73
2018-07-17T15:35:01.669Z,5.80
2018-07-17T15:37:30.098Z,6.67
2018-07-17T15:39:58.555Z,6.70
2018-07-17T15:42:26.944Z,6.50
2018-07-17T15:44:55.296Z,6.10
2018-07-17T15:47:23.999Z,5.43
2018-07-17T15:49:52.952Z,5.97
2018-07-17T15:52:21.761Z,6.50
2018-07-17T15:54:50.296Z,5.20
2018-07-17T15:57:19.362Z,5.40
2018-07-17T15:59:47.573Z,5.50
2018-07-17T16:02:15.661Z,4.73
2018-07-17T16:04:43.819Z,6.27
2018-07-17T16:07:11.974Z,5.17
2018-07-17T16:09:40.134Z,4.70
2018-07-17T16:12:08.432Z,4.87
2018-07-17T16:14:36.683Z,5.73
2018-07-17T16:17:05.369Z,6.10
2018-07-17T16:19:33.683Z,6.77
2018-07-17T16:22:01.937Z,5.83
2018-07-17T16:24:30.237Z,6.30
2018-07-17T16:26:58.709Z,5.60
2018-07-17T16:29:27.220Z,6.30
2018-07-17T16:31:56.022Z,5.90
2018-07-17T16:34:24.845Z,5.10
2018-07-17T16:36:53.404Z,5.87
2018-07-17T16:39:21.883Z,5.33
2018-07-17T16:41:50.874Z,5.80
2018-07-17T16:44:20.834Z,4.53
2018-07-17T16:46:49.162Z,5.40
2018-07-17T16:49:17.438Z,5.70
2018-07-17T16:51:45.602Z,5.07
2018-07-17T16:54:15.833Z,5.03
2018-07-17T16:56:43.938Z,6.30
2018-07-17T16:59:12.214Z,5.07
2018-07-17T17:01:40.387Z,5.60
2018-07-17T17:04:08.593Z,5.07
2018-07-17T17:06:36.794Z,4.97
2018-07-17T17:09:08.244Z,5.13
2018-07-17T17:11:36.410Z,4.43
2018-07-17T17:14:04.605Z,4.57
2018-07-17T17:16:32.922Z,5.00
2018-07-17T17:19:02.037Z,5.43
2018-07-17T17:21:30.159Z,5.03
2018-07-17T17:23:58.381Z,5.17
2018-07-17T17:26:26.465Z,5.70
2018-07-17T17:28:54.715Z,4.53
2018-07-17T17:31:22.957Z,5.53
2018-07-17T17:33:51.948Z,5.40
2018-07-17T17:36:21.249Z,5.27
2018-07-17T17:38:49.993Z,5.37
2018-07-17T17:41:19.094Z,5.40
2018-07-17T17:43:47.999Z,5.00
2018-07-17T17:46:16.233Z,5.10
2018-07-17T17:48:44.398Z,5.10
2018-07-17T17:51:12.539Z,8.80
2018-07-17T17:53:40.678Z,9.63
2018-07-17T17:56:08.848Z,5.87
2018-07-17T17:58:36.990Z,5.13
2018-07-17T18:01:05.162Z,5.10
2018-07-17T18:03:33.543Z,5.10
2018-07-17T18:06:02.041Z,5.10
2018-07-17T18:08:31.747Z,6.00
2018-07-17T18:11:00.129Z,5.83
2018-07-17T18:13:35.617Z,5.40
2018-07-17T18:16:03.831Z,6.40
2018-07-17T18:18:32.302Z,6.00
2018-07-17T18:21:01.218Z,5.93
2018-07-17T18:23:29.428Z,6.57
2018-07-17T18:25:57.694Z,6.10
2018-07-17T18:28:25.834Z,6.60
2018-07-17T18:30:53.997Z,7.30
2018-07-17T18:33:22.146Z,6.60
2018-07-17T18:35:50.382Z,6.43
2018-07-17T18:38:18.729Z,6.23
2018-07-17T18:40:46.871Z,5.87
2018-07-17T18:43:15.194Z,5.40
2018-07-17T18:45:43.421Z,5.20
2018-07-17T18:48:11.666Z,6.20
2018-07-17T18:50:39.786Z,5.07
2018-07-17T18:53:08.270Z,5.93
2018-07-17T18:55:36.625Z,6.20
2018-07-17T18:58:05.435Z,5.43
2018-07-17T19:00:34.408Z,5.70
2018-07-17T19:03:04.084Z,5.10
2018-07-17T19:05:32.957Z,4.90
2018-07-17T19:08:02.066Z,5.10
2018-07-17T19:10:30.552Z,4.80
2018-07-17T19:12:58.967Z,4.60
2018-07-17T19:15:27.187Z,6.10
2018-07-17T19:17:55.336Z,5.60
2018-07-17T19:20:23.527Z,6.00
2018-07-17T19:22:51.739Z,6.30
2018-07-17T19:25:19.988Z,5.97
2018-07-17T19:27:48.592Z,6.40
2018-07-17T19:30:16.681Z,5.70
2018-07-17T19:32:45.109Z,6.50
2018-07-17T19:35:13.765Z,6.47
2018-07-17T19:37:41.923Z,6.00
2018-07-17T19:40:10.116Z,6.50
2018-07-17T19:42:38.326Z,6.07
2018-07-17T19:45:06.636Z,5.60
2018-07-17T19:47:35.842Z,6.40
2018-07-17T19:50:06.885Z,6.20
2018-07-17T19:52:35.834Z,5.90
2018-07-17T19:55:05.503Z,5.10
2018-07-17T19:57:35.828Z,5.90
2018-07-17T20:00:05.907Z,5.97
2018-07-17T20:02:34.494Z,6.50
2018-07-17T20:05:03.831Z,6.90
2018-07-17T20:07:34.197Z,7.33
2018-07-17T20:10:02.897Z,7.17
2018-07-17T20:12:32.775Z,6.77
2018-07-17T20:15:02.069Z,7.10
2018-07-17T20:17:31.252Z,6.17
2018-07-17T20:20:00.357Z,6.50
2018-07-17T20:22:28.492Z,6.47
2018-07-17T20:24:56.698Z,6.10
2018-07-17T20:27:24.861Z,7.03
2018-07-17T20:29:53.054Z,6.77
2018-07-17T20:32:21.219Z,6.27
2018-07-17T20:34:49.366Z,7.33
2018-07-17T20:37:17.525Z,8.17
2018-07-17T20:39:45.677Z,6.83
2018-07-17T20:42:13.861Z,6.60
2018-07-17T20:44:42.130Z,7.13
2018-07-17T20:47:10.665Z,7.20
2018-07-17T20:49:39.378Z,7.20
2018-07-17T20:52:09.492Z,7.30
2018-07-17T20:54:38.826Z,6.47
2018-07-17T20:57:08.164Z,6.93
2018-07-17T20:59:37.925Z,6.90
2018-07-17T21:02:07.111Z,7.43
2018-07-17T21:04:36.641Z,17.30
2018-07-17T21:07:06.530Z,9.70
2018-07-17T21:09:36.583Z,6.70
2018-07-17T21:12:05.466Z,7.20
2018-07-17T21:14:34.390Z,7.10
2018-07-17T21:17:03.415Z,8.83
2018-07-17T21:19:31.666Z,8.17
2018-07-17T21:22:00.095Z,7.33
2018-07-17T21:24:28.174Z,7.47
2018-07-17T21:26:56.277Z,7.30
2018-07-17T21:29:24.362Z,7.23
2018-07-17T21:31:52.474Z,8.40
2018-07-17T21:34:20.593Z,7.90
2018-07-17T21:36:48.685Z,8.53
2018-07-17T21:39:16.814Z,8.90
2018-07-17T21:41:44.905Z,7.60
2018-07-17T21:44:13.310Z,8.30
2018-07-17T21:46:41.803Z,8.07
2018-07-17T21:49:09.890Z,8.30
2018-07-17T21:51:37.989Z,8.30
2018-07-17T21:54:06.412Z,8.33
2018-07-17T21:56:34.533Z,8.80
2018-07-17T21:59:02.646Z,8.30
2018-07-17T22:01:30.853Z,8.23
2018-07-17T22:03:59.020Z,9.10
2018-07-17T22:06:27.447Z,9.03
2018-07-17T22:08:55.671Z,8.47
2018-07-17T22:11:24.365Z,9.00
2018-07-17T22:13:52.455Z,8.57
2018-07-17T22:16:20.598Z,9.63
2018-07-17T22:18:48.715Z,8.47
2018-07-17T22:21:16.957Z,9.23
2018-07-17T22:23:45.114Z,9.70
2018-07-17T22:26:13.201Z,9.60
2018-07-17T22:28:41.306Z,10.33
2018-07-17T22:31:09.447Z,9.33
2018-07-17T22:33:37.556Z,9.90
2018-07-17T22:36:05.673Z,8.23
2018-07-17T22:38:33.765Z,9.07
2018-07-17T22:41:01.870Z,10.03
2018-07-17T22:43:29.970Z,9.00
2018-07-17T22:45:58.063Z,9.23
2018-07-17T22:48:26.169Z,9.70
2018-07-17T22:50:54.290Z,10.10
2018-07-17T22:53:22.455Z,8.70
2018-07-17T22:55:50.646Z,9.53
2018-07-17T22:58:18.777Z,9.60
2018-07-17T23:00:46.926Z,11.10
2018-07-17T23:03:15.048Z,9.37
2018-07-17T23:05:43.143Z,10.00
2018-07-17T23:08:11.294Z,10.87
2018-07-17T23:10:40.383Z,10.53
2018-07-17T23:13:08.474Z,10.50
2018-07-17T23:15:36.561Z,10.60
2018-07-17T23:18:04.643Z,9.90
2018-07-17T23:20:32.760Z,9.40
2018-07-17T23:23:00.875Z,8.63
2018-07-17T23:25:30.569Z,8.27
2018-07-17T23:27:59.344Z,9.27
2018-07-17T23:30:27.469Z,8.70
2018-07-17T23:32:55.572Z,8.93
2018-07-17T23:35:24.617Z,8.70
2018-07-17T23:37:53.194Z,8.07
2018-07-17T23:40:21.910Z,8.77
2018-07-17T23:42:50.081Z,8.80
2018-07-17T23:45:18.589Z,9.90
2018-07-17T23:47:47.500Z,9.03
2018-07-17T23:50:15.605Z,8.10
2018-07-17T23:52:43.686Z,8.17
2018-07-17T23:55:11.806Z,8.60
2018-07-17T23:57:39.890Z,9.33
